Time;durP1;ratioP1;P1;durP2;ratioP2;P2;SDS_P1;SDS_P2;PMS_P1;PMS_P2;Temp;Humidity;BMP_temperature;BMP_pressure;BME280_temperature;BME280_humidity;BME280_pressure;Samples;Min_cycle;Max_cycle;Signal;HPM_P1;HPM_P2
2022/03/02 00:00:47;;;;;;;20.73;14.85;;;;;;;3.63;52.15;101277.00;5045624;28;20873;-78
2022/03/02 00:03:13;;;;;;;23.37;14.87;;;;;;;3.58;52.47;101270.50;5034620;28;20391;-78
2022/03/02 00:05:38;;;;;;;30.65;18.02;;;;;;;3.57;52.17;101274.19;5034654;28;20512;-78
2022/03/02 00:08:05;;;;;;;39.47;21.77;;;;;;;3.52;52.34;101272.03;5050397;28;20391;-78
2022/03/02 00:10:31;;;;;;;27.77;16.92;;;;;;;3.53;52.61;101273.72;5042355;28;20408;-78
2022/03/02 00:12:56;;;;;;;24.20;15.38;;;;;;;3.58;52.36;101279.41;5042500;28;20481;-78
2022/03/02 00:15:22;;;;;;;21.40;15.23;;;;;;;3.58;52.66;101281.25;5049734;28;20471;-78
2022/03/02 00:17:47;;;;;;;19.30;14.13;;;;;;;3.59;52.79;101275.69;5038149;28;20475;-78
2022/03/02 00:20:13;;;;;;;26.23;13.40;;;;;;;3.64;53.10;101277.84;5047567;28;20439;-78
2022/03/02 00:22:39;;;;;;;25.02;15.43;;;;;;;3.66;53.43;101267.75;5044949;28;20400;-78
2022/03/02 00:25:05;;;;;;;22.00;14.40;;;;;;;3.66;53.50;101265.91;5039610;28;20415;-78
2022/03/02 00:27:31;;;;;;;21.83;14.23;;;;;;;3.60;52.71;101263.13;5050267;28;20389;-78
2022/03/02 00:29:57;;;;;;;21.23;14.50;;;;;;;3.51;52.67;101261.53;5040257;28;20382;-78
2022/03/02 00:32:22;;;;;;;24.07;14.37;;;;;;;3.52;52.30;101257.84;5042912;28;20395;-78
2022/03/02 00:34:47;;;;;;;19.20;13.67;;;;;;;3.48;52.24;101254.69;5046423;28;20416;-78
2022/03/02 00:37:14;;;;;;;20.17;13.57;;;;;;;3.49;52.75;101250.97;5052895;28;20410;-77
2022/03/02 00:39:42;;;;;;;19.00;14.60;;;;;;;3.54;52.42;101253.13;5048873;28;20410;-78
2022/03/02 00:42:07;;;;;;;20.05;14.57;;;;;;;3.53;51.87;101246.09;5042884;28;20392;-78
2022/03/02 00:44:34;;;;;;;23.83;16.43;;;;;;;3.46;52.69;101247.81;5040714;28;20505;-78
2022/03/02 00:46:59;;;;;;;28.23;18.02;;;;;;;3.38;53.97;101248.72;5050014;28;20824;-78
2022/03/02 00:49:26;;;;;;;24.48;16.73;;;;;;;3.33;54.88;101245.72;5036984;28;20413;-77
2022/03/02 00:51:55;;;;;;;25.60;16.80;;;;;;;3.27;55.65;101249.13;5060899;28;21013;-78
2022/03/02 00:54:21;;;;;;;24.05;16.38;;;;;;;3.20;56.13;101242.81;5046304;28;20394;-77
2022/03/02 00:56:46;;;;;;;23.75;15.90;;;;;;;3.05;56.10;101233.91;5035802;28;20406;-77
2022/03/02 00:59:12;;;;;;;19.07;15.03;;;;;;;2.83;56.91;101227.47;5049635;28;20421;-77
2022/03/02 01:01:37;;;;;;;21.80;15.20;;;;;;;2.84;57.22;101222.97;5041337;28;20480;-78
2022/03/02 01:04:02;;;;;;;22.70;15.23;;;;;;;2.88;57.48;101232.31;5042279;28;20406;-77
2022/03/02 01:06:27;;;;;;;22.50;15.67;;;;;;;2.92;57.68;101228.28;5063856;28;20745;-78
2022/03/02 01:08:53;;;;;;;20.90;15.07;;;;;;;2.93;57.55;101220.06;5036471;28;20397;-77
2022/03/02 01:11:18;;;;;;;22.67;15.75;;;;;;;2.93;58.04;101229.97;5062135;28;20399;-77
2022/03/02 01:13:43;;;;;;;21.07;15.43;;;;;;;2.91;57.83;101211.38;5042591;28;20408;-78
2022/03/02 01:16:09;;;;;;;22.77;15.53;;;;;;;2.91;58.39;101214.06;5039331;28;20403;-78
2022/03/02 01:18:34;;;;;;;21.17;16.00;;;;;;;2.92;57.74;101217.56;5036749;28;20862;-78
2022/03/02 01:20:59;;;;;;;20.00;15.47;;;;;;;2.90;57.86;101217.75;5047806;28;20398;-77
2022/03/02 01:23:25;;;;;;;23.97;17.00;;;;;;;2.92;58.27;101212.22;5040955;28;20402;-77
2022/03/02 01:25:51;;;;;;;22.08;15.75;;;;;;;2.86;57.46;101204.91;5040102;28;20426;-78
2022/03/02 01:28:16;;;;;;;23.13;16.87;;;;;;;2.84;57.03;101204.22;5049182;28;20385;-78
2022/03/02 01:30:42;;;;;;;23.98;16.15;;;;;;;2.85;57.08;101198.72;5037490;28;20950;-77
2022/03/02 01:33:07;;;;;;;26.30;17.40;;;;;;;2.85;57.64;101204.06;5048161;28;20395;-77
2022/03/02 01:35:33;;;;;;;26.93;16.47;;;;;;;2.84;57.38;101198.88;5044815;28;20808;-78
2022/03/02 01:37:58;;;;;;;25.20;17.17;;;;;;;2.81;57.57;101197.38;5037145;28;20390;-78
2022/03/02 01:40:23;;;;;;;31.37;16.50;;;;;;;2.78;58.15;101204.94;5048838;28;20746;-78
2022/03/02 01:42:49;;;;;;;28.57;18.03;;;;;;;2.73;57.82;101194.78;5055018;28;20442;-78
2022/03/02 01:45:15;;;;;;;26.87;16.77;;;;;;;2.70;57.58;101191.63;5041886;28;20501;-78
2022/03/02 01:47:40;;;;;;;23.00;16.08;;;;;;;2.66;57.84;101187.63;5047126;28;20876;-78
2022/03/02 01:50:10;;;;;;;23.75;15.20;;;;;;;2.61;57.37;101186.28;5036437;28;20396;-78
2022/03/02 01:52:36;;;;;;;25.52;16.27;;;;;;;2.58;57.60;101189.31;5046013;28;20459;-78
2022/03/02 01:55:03;;;;;;;28.52;17.00;;;;;;;2.56;58.32;101183.31;5042768;28;20539;-78
2022/03/02 01:57:28;;;;;;;25.95;16.35;;;;;;;2.55;58.00;101183.50;5038035;28;20398;-78
2022/03/02 01:59:54;;;;;;;23.67;16.17;;;;;;;2.53;57.82;101180.16;5048669;28;20390;-78
2022/03/02 02:02:19;;;;;;;27.33;16.13;;;;;;;2.50;57.66;101185.88;5038061;28;21026;-78
2022/03/02 02:04:45;;;;;;;18.58;14.88;;;;;;;2.50;58.59;101189.34;5041606;28;20980;-77
2022/03/02 02:07:10;;;;;;;23.85;16.23;;;;;;;2.49;58.19;101189.53;5045588;28;20393;-78
2022/03/02 02:09:36;;;;;;;25.30;16.37;;;;;;;2.46;58.61;101182.72;5036115;28;20755;-78
2022/03/02 02:12:01;;;;;;;24.40;15.37;;;;;;;2.44;58.76;101182.03;5047762;28;20461;-78
2022/03/02 02:14:26;;;;;;;24.67;15.87;;;;;;;2.43;58.16;101179.53;5040543;28;20445;-77
2022/03/02 02:16:52;;;;;;;25.27;15.63;;;;;;;2.42;57.97;101181.38;5039889;28;20407;-78
2022/03/02 02:19:17;;;;;;;19.13;14.27;;;;;;;2.41;58.95;101174.34;5063393;28;20952;-78
2022/03/02 02:21:46;;;;;;;18.97;14.33;;;;;;;2.38;59.22;101182.72;5035853;28;20396;-78
2022/03/02 02:24:11;;;;;;;24.88;14.77;;;;;;;2.27;59.08;101177.78;5044485;28;20474;-77
2022/03/02 02:26:37;;;;;;;21.88;15.02;;;;;;;2.17;59.59;101173.66;5043133;28;20861;-77
2022/03/02 02:29:02;;;;;;;24.98;14.85;;;;;;;2.08;60.74;101179.00;5036935;28;20390;-77
2022/03/02 02:31:28;;;;;;;20.77;15.13;;;;;;;2.02;61.06;101171.69;5048140;28;20443;-77
2022/03/02 02:33:53;;;;;;;22.20;15.53;;;;;;;1.96;60.90;101167.03;5038241;28;20484;-78
2022/03/02 02:36:19;;;;;;;23.33;15.83;;;;;;;1.93;61.43;101166.53;5041746;28;20387;-77
2022/03/02 02:38:45;;;;;;;19.50;14.25;;;;;;;1.90;61.40;101166.88;5045788;28;20396;-77
2022/03/02 02:41:10;;;;;;;18.58;14.00;;;;;;;1.87;62.18;101165.38;5035766;28;20391;-77
2022/03/02 02:43:37;;;;;;;20.23;14.30;;;;;;;1.87;62.03;101160.03;5046478;28;20423;-78
2022/03/02 02:46:03;;;;;;;24.05;15.05;;;;;;;1.88;61.61;101167.03;5039790;28;20389;-78
2022/03/02 02:48:29;;;;;;;23.08;15.00;;;;;;;1.84;61.65;101167.56;5038641;28;20395;-78
2022/03/02 02:50:54;;;;;;;21.93;14.30;;;;;;;1.81;61.78;101168.72;5046773;28;20398;-78
2022/03/02 02:53:19;;;;;;;19.67;14.55;;;;;;;1.78;61.26;101166.38;5036186;28;20390;-78
2022/03/02 02:55:47;;;;;;;20.37;14.17;;;;;;;1.68;60.64;101162.25;5047031;28;20399;-77
2022/03/02 02:58:13;;;;;;;21.05;13.50;;;;;;;1.58;61.23;101160.59;5044098;28;20401;-78
2022/03/02 03:00:42;;;;;;;21.23;14.17;;;;;;;1.60;61.35;101159.59;5047040;28;20398;-78
2022/03/02 03:03:08;;;;;;;23.17;14.93;;;;;;;1.59;61.39;101156.09;5047350;28;20423;-78
2022/03/02 03:05:34;;;;;;;19.83;13.80;;;;;;;1.58;62.23;101156.28;5039658;28;20494;-77
2022/03/02 03:08:02;;;;;;;20.88;14.65;;;;;;;1.55;62.03;101157.41;5038184;28;20434;-78
2022/03/02 03:10:28;;;;;;;20.85;14.35;;;;;;;1.50;61.93;101154.44;5047783;28;20388;-77
2022/03/02 03:12:53;;;;;;;21.63;13.77;;;;;;;1.49;62.33;101153.59;5035344;28;20389;-78
2022/03/02 03:15:20;;;;;;;21.30;14.30;;;;;;;1.46;62.23;101142.41;5042564;28;20407;-77
2022/03/02 03:17:46;;;;;;;22.70;15.23;;;;;;;1.43;62.63;101151.59;5042934;28;20424;-78
2022/03/02 03:20:14;;;;;;;19.30;14.33;;;;;;;1.38;62.96;101143.25;5036264;28;20417;-77
2022/03/02 03:22:39;;;;;;;20.23;14.60;;;;;;;1.34;62.88;101138.44;5047644;28;20399;-77
2022/03/02 03:25:07;;;;;;;20.35;14.52;;;;;;;1.29;62.97;101140.75;5038411;28;20504;-77
2022/03/02 03:27:32;;;;;;;18.45;13.38;;;;;;;1.26;63.11;101136.59;5040411;28;20453;-78
2022/03/02 03:29:58;;;;;;;23.58;14.27;;;;;;;1.24;62.64;101138.63;5046259;28;20386;-78
2022/03/02 03:32:23;;;;;;;21.13;14.23;;;;;;;1.21;62.79;101128.28;5037595;28;20963;-77
2022/03/02 03:34:49;;;;;;;20.23;14.00;;;;;;;1.20;63.04;101137.28;5049187;28;20391;-78
2022/03/02 03:37:14;;;;;;;23.15;14.35;;;;;;;1.13;62.99;101133.59;5044939;28;20393;-77
2022/03/02 03:39:42;;;;;;;22.10;14.80;;;;;;;1.05;63.35;101134.44;5050518;28;20387;-78
2022/03/02 03:42:08;;;;;;;23.17;13.43;;;;;;;0.96;63.46;101138.09;5051322;28;20398;-78
2022/03/02 03:44:33;;;;;;;23.33;14.65;;;;;;;0.90;63.38;101130.75;5040471;28;20756;-77
2022/03/02 03:46:58;;;;;;;18.52;13.68;;;;;;;0.97;63.90;101125.59;5045705;28;20842;-78
2022/03/02 03:49:24;;;;;;;20.40;14.33;;;;;;;1.02;63.64;101117.94;5047963;28;20397;-79
2022/03/02 03:51:49;;;;;;;23.73;15.03;;;;;;;1.05;64.54;101129.09;5037322;28;20395;-78
2022/03/02 03:54:14;;;;;;;19.27;14.18;;;;;;;1.09;63.80;101126.13;5049452;28;20399;-78
2022/03/02 03:56:40;;;;;;;18.93;14.13;;;;;;;1.04;63.62;101127.44;5042917;28;20394;-77
2022/03/02 03:59:05;;;;;;;22.10;14.20;;;;;;;1.03;63.97;101119.59;5043250;28;20392;-78
2022/03/02 04:01:31;;;;;;;24.93;15.40;;;;;;;1.05;63.57;101129.09;5050154;28;20530;-78
2022/03/02 04:03:56;;;;;;;21.52;15.32;;;;;;;1.07;64.05;101126.28;5038360;28;20488;-78
2022/03/02 04:06:22;;;;;;;18.05;13.25;;;;;;;1.07;63.90;101126.28;5047780;28;20384;-77
2022/03/02 04:08:47;;;;;;;21.17;13.88;;;;;;;1.05;63.74;101123.75;5045230;28;20397;-77
2022/03/02 04:11:13;;;;;;;22.37;14.60;;;;;;;1.04;63.87;101122.09;5040379;28;20394;-78
2022/03/02 04:13:38;;;;;;;22.10;13.87;;;;;;;1.03;63.83;101122.25;5049401;28;20792;-78
2022/03/02 04:16:04;;;;;;;19.93;14.00;;;;;;;0.96;63.11;101119.41;5055198;28;20508;-78
2022/03/02 04:18:31;;;;;;;21.02;14.45;;;;;;;0.90;63.98;101122.75;5044807;28;20790;-78
2022/03/02 04:20:57;;;;;;;21.50;15.10;;;;;;;0.87;63.50;101106.25;5046414;28;20484;-78
2022/03/02 04:23:22;;;;;;;22.87;14.57;;;;;;;0.80;64.19;101100.75;5038070;28;20441;-78
2022/03/02 04:25:48;;;;;;;20.40;14.60;;;;;;;0.77;64.18;101093.06;5049279;28;20450;-78
2022/03/02 04:28:14;;;;;;;21.95;14.40;;;;;;;0.85;63.98;101084.25;5043105;28;20853;-78
2022/03/02 04:30:39;;;;;;;20.92;13.30;;;;;;;0.92;63.35;101086.06;5041572;28;20403;-78
2022/03/02 04:33:05;;;;;;;19.57;14.30;;;;;;;0.96;63.53;101079.38;5050367;28;20386;-78
2022/03/02 04:35:31;;;;;;;24.83;15.87;;;;;;;0.97;63.64;101078.41;5038365;28;20523;-78
2022/03/02 04:37:57;;;;;;;24.65;15.65;;;;;;;0.90;63.91;101081.91;5061963;28;20422;-78
2022/03/02 04:40:22;;;;;;;22.27;13.55;;;;;;;0.85;63.68;101082.41;5045614;28;20772;-79
2022/03/02 04:42:47;;;;;;;19.37;12.77;;;;;;;0.83;64.08;101076.41;5037456;28;20398;-78
2022/03/02 04:45:13;;;;;;;18.67;13.63;;;;;;;0.80;63.64;101075.88;5048673;28;20438;-79
2022/03/02 04:47:39;;;;;;;19.33;13.07;;;;;;;0.77;63.75;101082.41;5040633;28;20390;-79
2022/03/02 04:50:06;;;;;;;20.17;13.30;;;;;;;0.72;64.09;101076.75;5043293;28;20525;-79
2022/03/02 04:52:31;;;;;;;19.52;13.82;;;;;;;0.67;64.85;101078.22;5048205;28;20443;-79
2022/03/02 04:55:06;;;;;;;20.73;13.57;;;;;;;0.66;65.37;101076.56;5037463;28;20773;-79
2022/03/02 04:57:34;;;;;;;21.20;13.77;;;;;;;0.67;65.17;101073.72;5046647;28;20510;-79
2022/03/02 04:59:59;;;;;;;20.10;13.82;;;;;;;0.69;65.19;101079.72;5044812;28;20386;-79
2022/03/02 05:02:25;;;;;;;22.37;14.13;;;;;;;0.70;65.09;101077.88;5038709;28;20950;-79
2022/03/02 05:04:50;;;;;;;25.13;14.88;;;;;;;0.70;65.84;101080.56;5049611;28;20500;-79
2022/03/02 05:07:16;;;;;;;19.73;14.00;;;;;;;0.72;65.40;101078.56;5039824;28;20432;-79
2022/03/02 05:09:43;;;;;;;18.23;13.70;;;;;;;0.73;66.10;101078.38;5043461;28;20955;-79
2022/03/02 05:12:09;;;;;;;21.73;14.07;;;;;;;0.73;65.76;101065.06;5047318;28;20397;-79
2022/03/02 05:14:34;;;;;;;18.88;14.02;;;;;;;0.74;65.56;101068.56;5035763;28;20635;-79
2022/03/02 05:16:59;;;;;;;19.07;14.23;;;;;;;0.73;65.92;101066.88;5047869;28;20461;-80
2022/03/02 05:19:25;;;;;;;19.10;13.93;;;;;;;0.69;65.64;101074.38;5042176;28;20390;-79
2022/03/02 05:21:50;;;;;;;20.67;13.13;;;;;;;0.70;65.12;101069.88;5040251;28;20403;-78
2022/03/02 05:24:16;;;;;;;19.17;12.87;;;;;;;0.69;65.75;101062.91;5049233;28;20436;-79
2022/03/02 05:26:41;;;;;;;17.70;13.77;;;;;;;0.70;65.67;101059.22;5037287;28;20405;-79
2022/03/02 05:29:07;;;;;;;22.83;13.27;;;;;;;0.70;65.66;101062.72;5045194;28;20427;-79
2022/03/02 05:31:32;;;;;;;19.75;13.82;;;;;;;0.69;65.69;101066.38;5044817;28;20396;-80
2022/03/02 05:33:58;;;;;;;25.75;16.50;;;;;;;0.68;65.94;101066.56;5037169;28;20391;-80
2022/03/02 05:36:24;;;;;;;29.63;18.43;;;;;;;0.69;66.73;101061.03;5047790;28;20751;-79
2022/03/02 05:38:51;;;;;;;23.55;15.70;;;;;;;0.71;66.33;101066.22;5038688;28;20385;-79
2022/03/02 05:41:17;;;;;;;23.60;15.60;;;;;;;0.67;66.50;101071.06;5041834;28;20398;-79
2022/03/02 05:43:42;;;;;;;25.73;17.75;;;;;;;0.71;66.00;101068.91;5047613;28;20397;-80
2022/03/02 05:46:08;;;;;;;29.80;18.67;;;;;;;0.69;66.61;101074.38;5036456;28;20388;-79
2022/03/02 05:48:33;;;;;;;27.70;18.90;;;;;;;0.67;66.31;101079.06;5046414;28;20398;-80
2022/03/02 05:50:58;;;;;;;24.67;17.47;;;;;;;0.65;67.30;101089.06;5042713;28;20489;-79
2022/03/02 05:53:24;;;;;;;32.47;18.80;;;;;;;0.63;67.07;101091.06;5038457;28;20477;-79
2022/03/02 05:55:49;;;;;;;25.30;18.20;;;;;;;0.62;66.61;101097.41;5048634;28;20397;-79
2022/03/02 05:58:14;;;;;;;28.27;18.03;;;;;;;0.60;66.39;101091.38;5036163;28;20406;-79
2022/03/02 06:00:41;;;;;;;18.77;14.40;;;;;;;0.63;66.03;101092.88;5043649;28;20774;-80
2022/03/02 06:03:07;;;;;;;22.00;15.18;;;;;;;0.64;65.60;101095.41;5044981;28;20397;-80
2022/03/02 06:05:32;;;;;;;25.57;16.40;;;;;;;0.65;65.35;101096.22;5036078;28;20503;-79
2022/03/02 06:07:57;;;;;;;23.90;15.70;;;;;;;0.64;65.97;101103.41;5048256;28;20397;-80
2022/03/02 06:10:23;;;;;;;22.10;14.68;;;;;;;0.62;65.85;101099.22;5038645;28;20433;-80
2022/03/02 06:12:49;;;;;;;23.58;15.00;;;;;;;0.60;65.61;101104.72;5040694;28;20894;-80
2022/03/02 06:15:14;;;;;;;22.58;15.90;;;;;;;0.58;65.92;101093.41;5047511;28;20385;-80
2022/03/02 06:17:41;;;;;;;23.58;15.70;;;;;;;0.57;66.18;101099.72;5051242;28;20476;-80
2022/03/02 06:20:07;;;;;;;22.70;14.30;;;;;;;0.58;65.85;101095.22;5045172;28;20446;-80
2022/03/02 06:22:33;;;;;;;23.85;15.50;;;;;;;0.54;65.38;101100.03;5042957;28;20442;-80
2022/03/02 06:24:58;;;;;;;19.90;14.93;;;;;;;0.57;65.31;101086.38;5047263;28;20939;-80
2022/03/02 06:27:24;;;;;;;22.58;15.68;;;;;;;0.58;65.33;101088.06;5045890;28;20403;-80
2022/03/02 06:29:49;;;;;;;21.17;15.32;;;;;;;0.61;66.14;101098.41;5038012;28;20389;-80
2022/03/02 06:32:15;;;;;;;21.03;13.83;;;;;;;0.58;65.60;101092.56;5042400;28;20403;-80
2022/03/02 06:34:41;;;;;;;19.47;13.10;;;;;;;0.57;65.92;101090.88;5045528;28;20459;-80
2022/03/02 06:37:06;;;;;;;19.95;13.63;;;;;;;0.61;65.26;101093.06;5035701;28;20399;-80
2022/03/02 06:39:32;;;;;;;18.47;12.50;;;;;;;0.66;65.53;101096.06;5047003;28;20422;-80
2022/03/02 06:42:16;;;;;;;19.53;11.43;;;;;;;0.71;65.40;101083.06;5040477;28;20393;-78
2022/03/02 06:45:00;;;;;;;19.08;13.38;;;;;;;0.75;64.65;101083.56;5036744;28;20418;-80
2022/03/02 06:47:28;;;;;;;19.45;12.07;;;;;;;0.83;64.61;101089.72;5036838;28;20488;-80
2022/03/02 06:50:10;;;;;;;19.52;13.02;;;;;;;0.89;63.91;101093.59;5051888;28;20903;-80
2022/03/02 06:52:44;;;;;;;17.55;12.63;;;;;;;0.99;64.43;101099.56;5036579;28;20400;-80
2022/03/02 06:55:14;;;;;;;29.02;13.98;;;;;;;1.05;64.39;101096.25;5051592;28;20455;-80
2022/03/02 06:57:40;;;;;;;23.33;13.73;;;;;;;1.14;64.00;101103.25;5043431;28;20453;-80
2022/03/02 07:00:16;;;;;;;17.80;12.35;;;;;;;1.25;64.11;101102.06;5043941;28;20396;-79
2022/03/02 07:02:46;;;;;;;18.40;13.52;;;;;;;1.32;64.16;101106.53;5035409;28;20438;-80
2022/03/02 07:05:12;;;;;;;22.10;13.53;;;;;;;1.37;63.63;101109.56;5046096;28;20977;-80
2022/03/02 07:07:38;;;;;;;20.15;13.65;;;;;;;1.41;63.88;101107.38;5043908;28;20389;-80
2022/03/02 07:10:08;;;;;;;21.60;14.57;;;;;;;1.31;63.53;101094.22;5042247;28;20426;-80
2022/03/02 07:12:34;;;;;;;20.05;14.48;;;;;;;1.37;64.53;101098.03;5052020;28;20427;-80
2022/03/02 07:15:00;;;;;;;23.42;15.80;;;;;;;1.50;63.73;101101.84;5040916;28;20381;-80
2022/03/02 07:17:32;;;;;;;26.77;15.73;;;;;;;1.52;63.41;101107.84;5050917;28;20407;-79
2022/03/02 07:20:01;;;;;;;21.73;15.52;;;;;;;1.45;63.97;101120.22;5049422;28;20451;-80
2022/03/02 07:22:35;;;;;;;23.45;16.65;;;;;;;1.48;64.75;101111.06;5039059;28;20391;-80
2022/03/02 07:25:07;;;;;;;26.00;16.45;;;;;;;1.58;64.22;101104.50;5048446;28;20415;-79
2022/03/02 07:27:39;;;;;;;21.55;15.35;;;;;;;1.65;64.16;101101.97;5046773;28;20762;-79
2022/03/02 07:30:07;;;;;;;24.92;17.52;;;;;;;1.65;63.83;101099.28;5039150;28;20466;-79
2022/03/02 07:32:35;;;;;;;30.17;20.30;;;;;;;1.61;64.38;101100.66;5050395;28;20392;-79
2022/03/02 07:35:02;;;;;;;22.63;15.82;;;;;;;1.59;64.16;101105.31;5079264;28;20791;-79
2022/03/02 07:37:28;;;;;;;22.85;15.65;;;;;;;1.63;64.44;101106.66;5047775;28;20416;-80
2022/03/02 07:39:54;;;;;;;21.33;14.65;;;;;;;1.76;64.38;101101.59;5039227;28;20395;-79
2022/03/02 07:42:19;;;;;;;23.30;15.32;;;;;;;1.92;64.60;101114.06;5066756;28;20426;-79
2022/03/02 07:44:49;;;;;;;24.23;16.23;;;;;;;1.99;64.38;101115.88;5042628;28;20409;-79
2022/03/02 07:47:15;;;;;;;27.88;17.42;;;;;;;2.01;64.66;101126.38;5043150;28;20488;-79
2022/03/02 07:49:40;;;;;;;21.92;15.65;;;;;;;2.06;64.21;101122.22;5050736;28;20710;-79
2022/03/02 07:52:07;;;;;;;30.37;18.57;;;;;;;2.13;63.79;101125.03;5038624;28;20745;-79
2022/03/02 07:54:37;;;;;;;30.58;21.23;;;;;;;2.27;63.64;101118.13;5050232;28;20759;-79
2022/03/02 07:57:04;;;;;;;23.02;17.40;;;;;;;2.52;62.82;101122.31;5046475;28;20398;-79
2022/03/02 07:59:36;;;;;;;21.98;16.25;;;;;;;2.78;62.10;101119.28;5039146;28;20743;-79
2022/03/02 08:02:03;;;;;;;29.30;16.83;;;;;;;2.73;61.03;101122.50;5037776;28;20406;-79
2022/03/02 08:04:30;;;;;;;29.70;17.73;;;;;;;2.80;59.85;101118.09;5046560;28;20458;-79
2022/03/02 08:06:56;;;;;;;28.40;17.23;;;;;;;2.97;59.27;101118.81;5046398;28;20385;-79
2022/03/02 08:09:21;;;;;;;31.00;18.17;;;;;;;2.96;59.63;101103.78;5038588;28;20433;-79
2022/03/02 08:11:47;;;;;;;28.63;18.07;;;;;;;3.10;59.90;101111.84;5065837;28;20404;-79
2022/03/02 08:14:12;;;;;;;26.97;18.17;;;;;;;3.16;59.51;101112.13;5041181;28;20389;-79
2022/03/02 08:16:38;;;;;;;27.23;18.10;;;;;;;3.07;59.33;101106.00;5049122;28;20829;-79
2022/03/02 08:19:05;;;;;;;26.80;17.70;;;;;;;3.02;59.51;101109.25;5048802;28;20865;-79
2022/03/02 08:21:32;;;;;;;25.05;16.88;;;;;;;2.97;59.61;101100.91;5038051;28;20437;-79
2022/03/02 08:24:01;;;;;;;25.33;18.27;;;;;;;3.08;60.32;101103.16;5047599;28;20418;-79
2022/03/02 08:26:32;;;;;;;24.48;17.23;;;;;;;3.16;59.81;101101.44;5060125;28;20472;-79
2022/03/02 08:29:02;;;;;;;32.50;18.05;;;;;;;3.11;59.82;101097.44;5038945;28;20398;-78
2022/03/02 08:31:28;;;;;;;29.23;18.07;;;;;;;3.18;60.53;101094.88;5050418;28;20445;-78
2022/03/02 08:33:55;;;;;;;23.67;17.40;;;;;;;3.39;59.80;101092.31;5041996;28;20385;-78
2022/03/02 08:36:23;;;;;;;25.35;16.95;;;;;;;3.53;59.77;101090.66;5042891;28;20438;-79
2022/03/02 08:38:52;;;;;;;23.23;16.50;;;;;;;3.63;59.25;101077.81;5049579;28;20741;-78
2022/03/02 08:41:19;;;;;;;25.70;18.02;;;;;;;3.73;58.08;101080.22;5037680;28;20457;-79
2022/03/02 08:43:45;;;;;;;27.63;18.65;;;;;;;3.85;57.75;101084.13;5046407;28;20945;-78
2022/03/02 08:46:11;;;;;;;31.02;18.30;;;;;;;3.89;58.49;101083.53;5043975;28;20761;-78
2022/03/02 08:48:36;;;;;;;28.77;18.33;;;;;;;4.18;58.92;101094.22;5051044;28;20386;-78
2022/03/02 08:51:02;;;;;;;29.17;18.80;;;;;;;4.39;58.31;101092.59;5051719;28;20402;-78
2022/03/02 08:53:29;;;;;;;29.23;18.50;;;;;;;4.50;57.97;101086.75;5047423;28;20940;-79
2022/03/02 08:55:57;;;;;;;25.13;18.80;;;;;;;4.60;58.04;101092.66;5044134;28;20714;-78
2022/03/02 08:58:23;;;;;;;28.40;20.23;;;;;;;4.57;58.04;101093.88;5039154;28;20396;-79
2022/03/02 09:00:52;;;;;;;29.77;20.83;;;;;;;4.56;57.23;101083.31;5049905;28;20420;-78
2022/03/02 09:03:17;;;;;;;30.97;19.33;;;;;;;4.53;56.58;101099.78;5040119;28;20428;-78
2022/03/02 09:05:43;;;;;;;27.77;19.33;;;;;;;4.58;56.10;101098.19;5043306;28;20419;-78
2022/03/02 09:08:08;;;;;;;27.40;17.53;;;;;;;4.52;56.14;101098.13;5046153;28;20402;-78
2022/03/02 09:10:35;;;;;;;25.97;17.90;;;;;;;4.54;56.39;101098.78;5037096;28;20390;-78
2022/03/02 09:13:02;;;;;;;24.63;16.33;;;;;;;4.47;55.79;101105.94;5048098;28;20413;-78
2022/03/02 09:15:28;;;;;;;29.83;17.45;;;;;;;4.46;55.50;101088.16;5042754;28;20417;-78
2022/03/02 09:17:53;;;;;;;25.83;16.23;;;;;;;4.45;55.91;101095.38;5048620;28;20449;-78
2022/03/02 09:20:19;;;;;;;21.90;14.33;;;;;;;4.42;55.41;101093.06;5045795;28;20872;-78
2022/03/02 09:22:44;;;;;;;19.80;14.53;;;;;;;4.49;54.03;101083.25;5038189;28;20420;-78
2022/03/02 09:25:10;;;;;;;21.03;14.60;;;;;;;4.53;53.40;101086.38;5044797;28;20411;-78
2022/03/02 09:27:36;;;;;;;21.45;15.57;;;;;;;4.63;53.17;101089.59;5045569;28;20385;-78
2022/03/02 09:30:06;;;;;;;21.37;15.10;;;;;;;4.79;53.35;101078.59;5036840;28;20384;-78
2022/03/02 09:32:32;;;;;;;23.15;15.55;;;;;;;4.77;53.51;101086.03;5037171;28;20396;-78
2022/03/02 09:34:59;;;;;;;27.42;15.65;;;;;;;4.87;53.60;101081.16;5052950;28;20389;-79
2022/03/02 09:37:27;;;;;;;23.35;17.50;;;;;;;5.07;53.61;101075.97;5040796;28;20448;-78
2022/03/02 09:39:53;;;;;;;26.07;18.60;;;;;;;5.12;53.40;101074.34;5049004;28;20416;-78
2022/03/02 09:42:25;;;;;;;23.60;17.25;;;;;;;5.23;53.38;101078.34;5036505;28;20741;-78
2022/03/02 09:45:01;;;;;;;28.23;17.30;;;;;;;5.26;53.65;101080.66;5052600;28;20503;-78
2022/03/02 09:47:36;;;;;;;25.45;15.68;;;;;;;5.21;53.64;101081.22;5039063;28;20463;-78
2022/03/02 09:50:02;;;;;;;25.50;17.25;;;;;;;5.32;53.68;101081.72;5048911;28;20378;-78
2022/03/02 09:52:31;;;;;;;24.55;16.35;;;;;;;5.33;53.57;101075.34;5039097;28;20423;-78
2022/03/02 09:54:57;;;;;;;20.83;14.50;;;;;;;5.45;52.52;101073.75;5041975;28;20751;-78
2022/03/02 09:57:23;;;;;;;26.73;14.73;;;;;;;5.47;51.43;101077.06;5047082;28;20968;-78
2022/03/02 09:59:52;;;;;;;20.83;15.18;;;;;;;5.63;51.68;101063.34;5050075;28;20883;-78
2022/03/02 10:02:37;;;;;;;21.92;15.48;;;;;;;5.81;50.68;101062.78;5051613;28;20387;-78
2022/03/02 10:05:08;;;;;;;21.13;15.65;;;;;;;6.01;50.95;101071.81;5047696;28;20482;-78
2022/03/02 10:07:36;;;;;;;21.95;14.85;;;;;;;6.14;50.27;101077.25;5048712;28;20389;-78
2022/03/02 10:10:11;;;;;;;20.30;14.98;;;;;;;5.93;50.41;101080.88;5037879;28;20451;-78
2022/03/02 10:12:38;;;;;;;20.13;14.43;;;;;;;5.67;51.58;101073.47;5041807;28;20879;-78
2022/03/02 10:15:15;;;;;;;21.63;15.10;;;;;;;6.05;50.49;101079.31;5046425;28;20433;-78
2022/03/02 10:17:42;;;;;;;22.63;15.10;;;;;;;6.29;48.81;101069.84;5035944;28;20741;-78
2022/03/02 10:20:14;;;;;;;20.98;15.30;;;;;;;6.35;49.04;101066.38;5044551;28;20396;-78
2022/03/02 10:22:39;;;;;;;20.20;13.87;;;;;;;6.31;48.74;101070.50;5044342;28;20444;-78
2022/03/02 10:25:48;;;;;;;20.40;15.23;;;;;;;6.49;49.12;101068.06;5047427;28;20782;-78
2022/03/02 10:28:20;;;;;;;20.10;14.27;;;;;;;6.76;48.75;101068.94;5040096;28;20455;-78
2022/03/02 10:30:56;;;;;;;19.65;13.88;;;;;;;6.62;49.47;101067.25;5051040;28;20390;-78
2022/03/02 10:33:23;;;;;;;23.75;14.73;;;;;;;6.93;48.60;101064.81;5035790;28;20478;-78
2022/03/02 10:36:05;;;;;;;25.07;15.80;;;;;;;6.83;47.53;101066.25;5060261;28;20806;-78
2022/03/02 10:38:47;;;;;;;21.80;15.63;;;;;;;7.04;47.50;101066.91;5044970;28;20936;-78
2022/03/02 10:41:14;;;;;;;19.95;14.57;;;;;;;7.28;46.77;101070.81;5050435;28;20463;-78
2022/03/02 10:44:02;;;;;;;23.70;15.93;;;;;;;7.37;46.58;101056.09;5045024;28;20395;-78
2022/03/02 10:46:28;;;;;;;21.67;15.55;;;;;;;7.26;46.27;101060.25;5045355;28;20405;-78
2022/03/02 10:49:07;;;;;;;18.77;14.70;;;;;;;7.40;46.55;101068.34;5051082;28;20392;-78
2022/03/02 10:51:35;;;;;;;25.52;15.27;;;;;;;7.28;46.17;101062.72;5044507;28;20403;-78
2022/03/02 10:54:03;;;;;;;24.15;15.45;;;;;;;7.54;46.30;101059.19;5042672;28;20393;-78
2022/03/02 10:56:29;;;;;;;22.90;14.90;;;;;;;7.71;45.53;101063.91;5036403;28;20421;-78
2022/03/02 10:58:55;;;;;;;19.40;15.18;;;;;;;7.75;44.96;101062.44;5047776;28;20398;-78
2022/03/02 11:01:21;;;;;;;19.10;15.00;;;;;;;7.74;45.00;101065.34;5038347;28;20385;-78
2022/03/02 11:03:47;;;;;;;20.52;14.95;;;;;;;7.45;45.67;101060.44;5040923;28;20379;-78
2022/03/02 11:06:13;;;;;;;20.90;14.93;;;;;;;7.33;46.86;101065.66;5046201;28;20413;-78
2022/03/02 11:08:42;;;;;;;21.88;15.68;;;;;;;7.37;46.22;101066.91;5035137;28;20949;-78
2022/03/02 11:11:10;;;;;;;23.67;15.93;;;;;;;7.52;45.87;101062.09;5060286;28;20395;-78
2022/03/02 11:13:36;;;;;;;21.52;15.57;;;;;;;7.67;45.51;101051.06;5041963;28;20504;-78
2022/03/02 11:16:04;;;;;;;26.02;15.40;;;;;;;7.89;44.64;101048.91;5036865;28;20411;-78